Laporte, CO

11:33 AM MST on February 22, 2017 (GMT -0700)
KBB Honey Farm | | Change Station

Elev 5130 ft 40.64 °N, 105.14 °W | Updated 3 minutes ago

Partly Cloudy
Partly Cloudy
56.5 °F
Feels Like 56.5 °F
N
0.0
Wind Variable Wind from SE
Gusts 0.0 mph

Today
High -- | Low -- °F
--% Chance of Precip.
Yesterday
High -- | Low -- °F
Precip. -- in
Pressure 29.76 in
Visibility 10.0 miles
Clouds Clear
Dew Point 29 °F
Humidity 35%
Rainfall 0.00 in
Snow Depth Not available.
6:44 AM 5:44 PM
Waning Crescent, 16% visible
METAR KFNL 221756Z AUTO 13006KT 10SM CLR 12/M03 A2986 RMK AO2 SLP076 T01171033 10117 20033 58001
Pressure 29.76 in
Visibility 10.0 miles
Clouds Clear
Dew Point 29 °F
Humidity 35%
Rainfall 0.00 in
Snow Depth Not available.
6:44 AM 5:44 PM
Waning Crescent, 16% visible
METAR KFNL 221756Z AUTO 13006KT 10SM CLR 12/M03 A2986 RMK AO2 SLP076 T01171033 10117 20033 58001

Get Your Daily Forecast Email!

Thanks for signing up!

Be on the lookout for a verification email in your inbox.

You'll start receiving the daily forecast at 8 AM.

×

10-Day Weather Forecast

Almanac

Astronomy

Feb. 22, 2017 Rise Set
Actual Time
Civil Twilight
Nautical Twilight
Astronomical Twilight
Moon
Length of Visible Light
Length of Day
Tomorrow will be .
, % of the Moon is Illuminated

Today's Extremes

State Highs State Lows

Community

WunderPhotos

Upload Photos

1,962,540 photos uploaded!

WunderBlog® & News

Nearby

Air Quality

  Air Quality AQ Index Pollutant
Not available.

Snow Depth

Station Depth Elevation

Earthquake Activity

City Distance Mag. Time & Date
Minimum magnitude displayed is 2.5.

Coastal Water Temperatures

Place Temperature

Stations

Nearby Weather Stations

Station Location Temp. Windchill Dew Point Humidity Wind Precip. Elev Updated Type
                   

Watches & Warnings

There are currently no watches in effect.